Time;durP1;ratioP1;P1;durP2;ratioP2;P2;SDS_P1;SDS_P2;PMS_P1;PMS_P2;Temp;Humidity;BMP_temperature;BMP_pressure;BME280_temperature;BME280_humidity;BME280_pressure;Samples;Min_cycle;Max_cycle;Signal;HPM_P1;HPM_P2
2022/12/15 00:40:41;;;;;;;13.33;7.30;;;;;;;;;;10471979;28;20210;-71
2022/12/15 00:51:02;;;;;;;26.67;7.43;;;;;;;;;;10469996;28;20341;-71
2022/12/15 01:22:42;;;;;;;18.53;8.07;;;;;;;;;;10467500;28;20251;-71
2022/12/15 01:27:44;;;;;;;27.47;7.47;;;;;;;;;;10469688;28;20633;-73
2022/12/15 01:32:45;;;;;;;24.33;8.03;;;;;;;;;;10447039;28;20224;-70
2022/12/15 01:37:47;;;;;;;24.40;8.20;;;;;;;;;;10467312;28;20210;-71
2022/12/15 01:42:48;;;;;;;18.73;8.83;;;;;;;;;;10463917;28;20215;-70
2022/12/15 01:47:53;;;;;;;18.43;5.87;;;;;;;;;;10468041;28;20217;-71
2022/12/15 01:52:54;;;;;;;25.23;6.33;;;;;;;;;;10465756;28;20237;-70
2022/12/15 01:57:58;;;;;;;28.03;7.13;;;;;;;;;;10470488;28;20210;-70
2022/12/15 02:03:00;;;;;;;22.87;5.80;;;;;;;;;;10463618;28;20634;-70
2022/12/15 02:08:02;;;;;;;17.10;7.23;;;;;;;;;;10476534;28;20458;-70
2022/12/15 02:13:21;;;;;;;22.97;6.27;;;;;;;;;;10466365;28;20211;-71
2022/12/15 02:18:26;;;;;;;13.90;6.37;;;;;;;;;;10465949;28;20217;-71
2022/12/15 02:23:30;;;;;;;15.40;6.70;;;;;;;;;;10464264;28;20211;-70
2022/12/15 02:29:01;;;;;;;20.27;8.17;;;;;;;;;;10464693;28;20215;-72
2022/12/15 02:34:11;;;;;;;16.03;7.40;;;;;;;;;;10426901;28;20305;-71
2022/12/15 02:39:40;;;;;;;18.73;6.40;;;;;;;;;;10458580;28;20245;-70
2022/12/15 02:45:05;;;;;;;17.13;6.03;;;;;;;;;;10458100;28;20241;-71
2022/12/15 02:50:09;;;;;;;11.57;6.17;;;;;;;;;;10449099;28;20253;-71
2022/12/15 02:55:22;;;;;;;21.27;6.83;;;;;;;;;;10457548;28;20179;-72
2022/12/15 03:00:23;;;;;;;11.50;4.90;;;;;;;;;;10444363;28;20656;-71
2022/12/15 03:05:25;;;;;;;13.63;6.77;;;;;;;;;;10473809;28;20285;-71
2022/12/15 03:10:26;;;;;;;16.17;5.27;;;;;;;;;;10447647;28;20225;-72
2022/12/15 03:15:27;;;;;;;11.40;6.00;;;;;;;;;;10464715;28;21095;-71
2022/12/15 03:20:29;;;;;;;18.87;6.47;;;;;;;;;;10459447;28;20238;-72
2022/12/15 03:25:30;;;;;;;11.47;6.23;;;;;;;;;;10462006;28;20628;-70
2022/12/15 03:30:31;;;;;;;16.03;6.53;;;;;;;;;;10482208;28;20772;-73
2022/12/15 03:35:32;;;;;;;12.10;5.23;;;;;;;;;;10473220;28;20671;-71
2022/12/15 03:40:33;;;;;;;10.60;4.43;;;;;;;;;;10476164;28;20218;-71
2022/12/15 03:45:34;;;;;;;17.40;6.90;;;;;;;;;;10465877;28;20255;-71
2022/12/15 03:50:36;;;;;;;9.97;5.33;;;;;;;;;;10480260;28;20241;-72
2022/12/15 03:55:37;;;;;;;8.90;4.23;;;;;;;;;;10477456;28;20217;-72
2022/12/15 04:00:38;;;;;;;15.43;3.40;;;;;;;;;;10491347;28;20315;-73
2022/12/15 04:05:39;;;;;;;17.37;7.07;;;;;;;;;;10495275;28;20237;-71
2022/12/15 04:10:42;;;;;;;9.17;5.53;;;;;;;;;;10487972;28;20222;-74
2022/12/15 04:15:43;;;;;;;11.60;6.43;;;;;;;;;;10488234;28;20242;-72
2022/12/15 04:20:44;;;;;;;10.47;4.77;;;;;;;;;;10474712;28;20213;-72
2022/12/15 05:35:08;;;;;;;13.40;6.00;;;;;;;;;;10463196;28;20209;-71
2022/12/15 05:40:09;;;;;;;5.10;4.37;;;;;;;;;;10467918;28;20170;-72
2022/12/15 05:45:10;;;;;;;6.43;3.60;;;;;;;;;;10466696;28;20297;-72
2022/12/15 05:50:12;;;;;;;10.47;5.20;;;;;;;;;;10460620;28;20245;-71
2022/12/15 05:55:13;;;;;;;9.13;4.63;;;;;;;;;;10458819;28;20202;-72
2022/12/15 06:00:14;;;;;;;17.03;5.77;;;;;;;;;;10458916;28;20201;-72
2022/12/15 06:05:15;;;;;;;11.83;5.73;;;;;;;;;;10464586;28;20189;-71
2022/12/15 06:10:16;;;;;;;10.00;3.90;;;;;;;;;;10469771;28;20682;-73
2022/12/15 06:15:17;;;;;;;11.00;5.10;;;;;;;;;;10465323;28;20202;-72
2022/12/15 06:20:18;;;;;;;5.50;5.00;;;;;;;;;;10460091;28;20222;-72
2022/12/15 06:25:19;;;;;;;6.73;3.53;;;;;;;;;;10457231;28;20290;-74
2022/12/15 06:30:21;;;;;;;5.50;4.50;;;;;;;;;;10482628;28;20202;-75
2022/12/15 06:35:22;;;;;;;12.93;4.10;;;;;;;;;;10460363;28;20222;-76
2022/12/15 06:40:23;;;;;;;10.63;5.77;;;;;;;;;;10468447;28;20930;-72
2022/12/15 06:45:24;;;;;;;11.67;5.03;;;;;;;;;;10466427;28;20218;-73
2022/12/15 06:50:25;;;;;;;7.37;4.80;;;;;;;;;;10467910;28;20233;-72
2022/12/15 06:55:26;;;;;;;11.70;4.13;;;;;;;;;;10447429;28;20556;-74
2022/12/15 07:00:27;;;;;;;11.97;4.97;;;;;;;;;;10462091;28;20264;-74
2022/12/15 07:05:29;;;;;;;6.70;3.80;;;;;;;;;;10469643;28;20356;-73
2022/12/15 07:10:30;;;;;;;12.60;5.87;;;;;;;;;;10465144;28;20222;-75
2022/12/15 07:15:31;;;;;;;14.67;6.77;;;;;;;;;;10484842;28;20217;-75
2022/12/15 07:20:32;;;;;;;10.23;4.83;;;;;;;;;;10431099;28;20217;-74
2022/12/15 07:25:35;;;;;;;9.97;3.97;;;;;;;;;;10456008;28;20317;-74
2022/12/15 07:30:37;;;;;;;13.30;3.80;;;;;;;;;;10463362;28;20685;-74
2022/12/15 07:35:38;;;;;;;8.07;4.40;;;;;;;;;;10460759;28;20207;-74
2022/12/15 07:40:39;;;;;;;9.37;4.97;;;;;;;;;;10465594;28;21189;-73
2022/12/15 07:45:40;;;;;;;9.30;4.10;;;;;;;;;;10462143;28;20729;-74
2022/12/15 07:50:41;;;;;;;7.67;4.93;;;;;;;;;;10466835;28;20593;-74
2022/12/15 07:55:42;;;;;;;10.43;5.13;;;;;;;;;;10462721;28;20714;-75
2022/12/15 08:00:43;;;;;;;8.40;3.40;;;;;;;;;;10463668;28;20214;-72
2022/12/15 08:05:45;;;;;;;5.87;4.60;;;;;;;;;;10470503;28;20885;-72
2022/12/15 08:10:46;;;;;;;5.07;2.90;;;;;;;;;;10472968;28;20222;-74
2022/12/15 08:15:47;;;;;;;7.90;3.93;;;;;;;;;;10464375;28;20681;-74
2022/12/15 08:20:48;;;;;;;7.87;4.17;;;;;;;;;;10462700;28;20210;-74
2022/12/15 08:25:51;;;;;;;4.60;3.37;;;;;;;;;;10474716;28;20223;-74
2022/12/15 08:30:52;;;;;;;9.93;4.27;;;;;;;;;;10470250;28;20229;-74
2022/12/15 08:35:56;;;;;;;11.97;4.17;;;;;;;;;;10472604;28;20229;-74
2022/12/15 08:40:58;;;;;;;7.50;4.53;;;;;;;;;;10486172;28;20222;-73
2022/12/15 08:45:59;;;;;;;6.23;4.30;;;;;;;;;;10481503;28;20217;-74
2022/12/15 08:51:01;;;;;;;12.07;4.73;;;;;;;;;;10469318;28;20214;-73
2022/12/15 08:56:04;;;;;;;6.97;3.87;;;;;;;;;;10459302;28;20235;-75
2022/12/15 09:01:07;;;;;;;7.93;4.73;;;;;;;;;;10468768;28;20211;-75
2022/12/15 09:06:12;;;;;;;5.97;3.77;;;;;;;;;;10471560;28;20718;-74
2022/12/15 09:11:14;;;;;;;12.57;5.57;;;;;;;;;;10476874;28;20215;-74
2022/12/15 09:16:15;;;;;;;10.07;5.50;;;;;;;;;;10485504;28;20216;-75
2022/12/15 09:21:17;;;;;;;8.83;6.53;;;;;;;;;;10476444;28;20206;-73
2022/12/15 09:26:19;;;;;;;6.50;4.63;;;;;;;;;;10471770;28;20223;-74
2022/12/15 09:31:21;;;;;;;5.37;4.40;;;;;;;;;;10490425;28;20217;-72
2022/12/15 09:36:23;;;;;;;10.37;4.70;;;;;;;;;;10466699;28;20308;-73
2022/12/15 09:41:32;;;;;;;7.37;5.20;;;;;;;;;;10476597;28;20225;-74
2022/12/15 09:46:33;;;;;;;16.30;6.13;;;;;;;;;;10467565;28;20218;-74
2022/12/15 09:51:41;;;;;;;12.23;6.40;;;;;;;;;;10450964;28;20223;-71
2022/12/15 09:56:44;;;;;;;11.43;6.80;;;;;;;;;;10465983;28;20245;-73
2022/12/15 10:02:00;;;;;;;9.97;6.30;;;;;;;;;;10460708;28;20287;-72
2022/12/15 10:07:05;;;;;;;13.80;7.83;;;;;;;;;;10462837;28;20692;-72
2022/12/15 10:12:20;;;;;;;17.17;8.07;;;;;;;;;;10460720;28;20218;-72
2022/12/15 10:17:27;;;;;;;9.93;5.43;;;;;;;;;;10462153;28;20210;-72
2022/12/15 10:22:30;;;;;;;12.03;5.73;;;;;;;;;;10461604;28;20238;-70
2022/12/15 10:27:38;;;;;;;12.03;6.17;;;;;;;;;;10450695;28;20625;-69
2022/12/15 10:33:01;;;;;;;8.18;4.88;;;;;;;;;;10457776;28;20214;-69
2022/12/15 10:38:04;;;;;;;19.35;5.93;;;;;;;;;;10452429;28;20217;-70
2022/12/15 10:43:12;;;;;;;5.68;4.70;;;;;;;;;;10466091;28;20234;-70
2022/12/15 10:48:18;;;;;;;6.45;4.70;;;;;;;;;;10454224;28;20840;-71
2022/12/15 10:53:38;;;;;;;8.25;4.93;;;;;;;;;;10452810;28;20248;-70
2022/12/15 10:58:47;;;;;;;5.60;4.53;;;;;;;;;;10461037;28;20787;-70
2022/12/15 11:03:50;;;;;;;6.72;5.50;;;;;;;;;;10465538;28;20217;-71
2022/12/15 11:08:53;;;;;;;8.02;5.65;;;;;;;;;;10458061;28;20638;-72
2022/12/15 11:14:06;;;;;;;11.02;6.15;;;;;;;;;;10459663;28;20300;-71
2022/12/15 11:19:13;;;;;;;11.23;5.55;;;;;;;;;;10465639;28;20282;-71
2022/12/15 11:24:17;;;;;;;5.65;4.40;;;;;;;;;;10459065;28;20233;-72
2022/12/15 11:29:22;;;;;;;6.88;4.57;;;;;;;;;;10461540;28;20207;-70
2022/12/15 11:34:32;;;;;;;5.55;4.35;;;;;;;;;;10455726;28;20206;-71
2022/12/15 11:39:46;;;;;;;16.77;8.70;;;;;;;;;;10464097;28;20582;-72
2022/12/15 11:44:53;;;;;;;12.60;7.57;;;;;;;;;;10451517;28;20221;-72
2022/12/15 11:49:59;;;;;;;5.45;4.93;;;;;;;;;;10447080;28;20222;-72
2022/12/15 11:55:21;;;;;;;6.53;4.95;;;;;;;;;;10463444;28;20206;-71
2022/12/15 12:00:22;;;;;;;6.82;6.10;;;;;;;;;;10446984;28;20270;-71
2022/12/15 12:05:28;;;;;;;5.38;4.47;;;;;;;;;;10470888;28;20210;-70
2022/12/15 12:10:44;;;;;;;4.75;4.28;;;;;;;;;;10466743;28;20706;-69
2022/12/15 12:16:15;;;;;;;6.63;4.60;;;;;;;;;;10460184;28;20313;-69
2022/12/15 12:21:19;;;;;;;6.25;5.25;;;;;;;;;;10462054;28;20264;-69
2022/12/15 12:26:31;;;;;;;7.03;4.72;;;;;;;;;;10464456;28;20226;-71
2022/12/15 12:31:43;;;;;;;9.38;4.32;;;;;;;;;;10459093;28;20261;-71
2022/12/15 12:36:44;;;;;;;6.75;4.40;;;;;;;;;;10458675;28;20211;-70
2022/12/15 12:41:54;;;;;;;4.93;4.43;;;;;;;;;;10459697;28;20709;-71
2022/12/15 12:46:57;;;;;;;6.40;4.45;;;;;;;;;;10460940;28;20219;-68
2022/12/15 12:52:00;;;;;;;6.18;4.93;;;;;;;;;;10466163;28;20225;-72
2022/12/15 12:57:21;;;;;;;5.57;4.63;;;;;;;;;;10462921;28;20222;-70
2022/12/15 13:02:25;;;;;;;7.75;4.90;;;;;;;;;;10460108;28;20224;-68
2022/12/15 13:07:33;;;;;;;6.93;5.07;;;;;;;;;;10462588;28;20226;-70
2022/12/15 13:12:35;;;;;;;5.15;4.30;;;;;;;;;;10467676;28;20218;-71
2022/12/15 13:17:41;;;;;;;5.68;4.45;;;;;;;;;;10469301;28;20236;-70
2022/12/15 13:22:42;;;;;;;13.65;5.22;;;;;;;;;;10471049;28;20224;-70
2022/12/15 13:27:43;;;;;;;10.35;5.18;;;;;;;;;;10417156;28;20277;-70
2022/12/15 13:32:45;;;;;;;11.93;6.32;;;;;;;;;;10389425;28;20207;-71
2022/12/15 13:37:46;;;;;;;11.10;6.53;;;;;;;;;;10414614;28;20228;-72
2022/12/15 13:42:55;;;;;;;14.30;6.40;;;;;;;;;;10382676;28;20220;-74
2022/12/15 13:47:56;;;;;;;12.30;6.07;;;;;;;;;;10395583;28;20212;-75
2022/12/15 13:53:00;;;;;;;21.10;8.33;;;;;;;;;;10388468;28;20242;-71
2022/12/15 13:58:01;;;;;;;14.13;6.80;;;;;;;;;;10387337;28;20215;-71
2022/12/15 14:03:06;;;;;;;14.27;5.87;;;;;;;;;;10384101;28;20706;-71
2022/12/15 14:08:09;;;;;;;13.50;7.07;;;;;;;;;;10383078;28;20223;-71
2022/12/15 14:13:12;;;;;;;18.30;6.60;;;;;;;;;;10383356;28;20223;-71
2022/12/15 14:18:28;;;;;;;44.35;16.42;;;;;;;;;;10380276;28;20219;-71
2022/12/15 14:23:30;;;;;;;89.70;25.37;;;;;;;;;;10419226;28;20234;-71
2022/12/15 14:28:32;;;;;;;10.03;5.33;;;;;;;;;;10453103;28;20260;-70
2022/12/15 14:33:35;;;;;;;15.23;6.53;;;;;;;;;;10473553;28;20975;-75
2022/12/15 14:38:40;;;;;;;8.73;5.75;;;;;;;;;;10452368;28;20600;-73
2022/12/15 14:43:41;;;;;;;13.00;6.37;;;;;;;;;;10464747;28;20260;-73
2022/12/15 14:48:50;;;;;;;8.77;6.10;;;;;;;;;;10461246;28;20216;-72
2022/12/15 14:53:52;;;;;;;11.13;6.22;;;;;;;;;;10462954;28;20677;-72
2022/12/15 14:58:55;;;;;;;9.88;6.15;;;;;;;;;;10459581;28;20214;-72
2022/12/15 15:03:57;;;;;;;10.23;5.93;;;;;;;;;;10463933;28;20241;-72
2022/12/15 15:09:03;;;;;;;13.43;7.10;;;;;;;;;;10458839;28;20213;-73
2022/12/15 15:14:07;;;;;;;15.67;7.77;;;;;;;;;;10462077;28;20708;-74
2022/12/15 15:19:19;;;;;;;16.90;8.10;;;;;;;;;;10471388;28;20217;-74
2022/12/15 15:24:32;;;;;;;12.80;7.30;;;;;;;;;;10469033;28;20222;-74
2022/12/15 15:29:38;;;;;;;20.00;8.67;;;;;;;;;;10468959;28;20256;-73
2022/12/15 15:34:39;;;;;;;16.37;8.80;;;;;;;;;;10464152;28;20234;-73
2022/12/15 15:39:40;;;;;;;17.23;8.93;;;;;;;;;;10466215;28;20223;-74
2022/12/15 15:44:41;;;;;;;24.87;11.33;;;;;;;;;;10467978;28;20689;-72
2022/12/15 15:49:43;;;;;;;18.53;8.53;;;;;;;;;;10465109;28;20220;-71
2022/12/15 15:54:44;;;;;;;17.47;9.03;;;;;;;;;;10466271;28;20647;-71
2022/12/15 15:59:45;;;;;;;22.57;9.57;;;;;;;;;;10464848;28;20225;-72
2022/12/15 16:04:46;;;;;;;26.70;11.33;;;;;;;;;;10468026;28;20217;-72
2022/12/15 16:09:48;;;;;;;16.93;9.87;;;;;;;;;;10471171;28;20319;-74
2022/12/15 16:14:49;;;;;;;22.53;11.10;;;;;;;;;;10471633;28;20217;-73
2022/12/15 16:19:50;;;;;;;21.60;9.27;;;;;;;;;;10467399;28;20213;-76
2022/12/15 16:24:51;;;;;;;21.83;9.67;;;;;;;;;;10466789;28;20328;-74
2022/12/15 16:29:52;;;;;;;20.17;10.60;;;;;;;;;;10471126;28;20225;-77
2022/12/15 16:34:53;;;;;;;24.20;11.23;;;;;;;;;;10460704;28;20595;-79
2022/12/15 16:39:54;;;;;;;25.90;12.20;;;;;;;;;;10455205;28;20308;-75
2022/12/15 16:44:55;;;;;;;22.90;11.73;;;;;;;;;;10473891;28;20223;-74
2022/12/15 16:49:56;;;;;;;26.53;11.80;;;;;;;;;;10470008;28;20250;-80
2022/12/15 16:54:58;;;;;;;21.93;10.20;;;;;;;;;;10472579;28;20203;-81
2022/12/15 17:00:00;;;;;;;17.90;10.70;;;;;;;;;;10461399;28;20209;-80
2022/12/15 17:05:01;;;;;;;22.13;10.83;;;;;;;;;;10469240;28;20213;-73
2022/12/15 17:10:03;;;;;;;25.50;11.07;;;;;;;;;;10450746;28;20210;-73
2022/12/15 17:15:08;;;;;;;22.97;12.43;;;;;;;;;;10472710;28;20221;-75
2022/12/15 17:20:14;;;;;;;23.70;11.50;;;;;;;;;;10448218;28;20300;-72
2022/12/15 17:25:16;;;;;;;20.40;10.40;;;;;;;;;;10469961;28;20269;-74
2022/12/15 17:30:18;;;;;;;23.50;10.03;;;;;;;;;;10471393;28;20211;-78
2022/12/15 17:35:20;;;;;;;19.27;11.00;;;;;;;;;;10456464;28;20179;-74
2022/12/15 17:40:22;;;;;;;26.30;11.30;;;;;;;;;;10469887;28;20577;-75
2022/12/15 17:45:24;;;;;;;31.40;11.77;;;;;;;;;;10450693;28;20232;-74
2022/12/15 17:50:25;;;;;;;16.50;9.47;;;;;;;;;;10467827;28;20230;-76
2022/12/15 17:55:28;;;;;;;26.57;10.63;;;;;;;;;;10465009;28;20218;-76
2022/12/15 18:00:30;;;;;;;19.37;10.83;;;;;;;;;;10453314;28;20244;-76
2022/12/15 18:05:31;;;;;;;26.03;12.00;;;;;;;;;;10448525;28;20222;-75
2022/12/15 18:10:34;;;;;;;24.80;12.50;;;;;;;;;;10466904;28;20690;-75
2022/12/15 18:15:35;;;;;;;33.60;14.23;;;;;;;;;;10465791;28;20241;-74
2022/12/15 18:20:36;;;;;;;39.83;13.73;;;;;;;;;;10465007;28;20302;-78
2022/12/15 18:25:38;;;;;;;36.30;14.70;;;;;;;;;;10445747;28;20218;-79
2022/12/15 18:30:40;;;;;;;30.60;13.23;;;;;;;;;;10454320;28;20229;-78
2022/12/15 18:35:42;;;;;;;25.87;11.87;;;;;;;;;;10474584;28;20219;-77
2022/12/15 18:40:51;;;;;;;25.90;11.83;;;;;;;;;;10465956;28;20210;-79
2022/12/15 18:45:52;;;;;;;24.00;11.03;;;;;;;;;;10455343;28;20233;-74
2022/12/15 18:50:54;;;;;;;28.30;12.03;;;;;;;;;;10445566;28;20229;-74
2022/12/15 18:55:56;;;;;;;26.80;12.13;;;;;;;;;;10461988;28;20272;-76
2022/12/15 19:00:59;;;;;;;25.60;13.10;;;;;;;;;;10461756;28;20206;-76
2022/12/15 19:06:09;;;;;;;24.57;12.43;;;;;;;;;;10468192;28;20218;-76
2022/12/15 19:11:13;;;;;;;25.13;12.87;;;;;;;;;;10467689;28;20225;-75
2022/12/15 19:16:16;;;;;;;45.77;13.83;;;;;;;;;;10458130;28;20214;-73
2022/12/15 19:26:39;;;;;;;29.17;13.47;;;;;;;;;;10466845;28;20630;-74
2022/12/15 19:31:40;;;;;;;30.60;11.90;;;;;;;;;;10456336;28;21066;-73
2022/12/15 19:36:41;;;;;;;28.67;12.53;;;;;;;;;;10462575;28;20309;-73
2022/12/15 19:41:42;;;;;;;24.23;11.10;;;;;;;;;;10465634;28;20315;-73
2022/12/15 19:46:43;;;;;;;38.27;13.00;;;;;;;;;;10460274;28;20222;-75
2022/12/15 19:51:45;;;;;;;27.87;12.03;;;;;;;;;;10461034;28;21144;-74
2022/12/15 19:56:46;;;;;;;24.83;10.87;;;;;;;;;;10447138;28;20218;-73
2022/12/15 20:01:50;;;;;;;27.43;12.03;;;;;;;;;;10447667;28;20209;-74
2022/12/15 20:06:51;;;;;;;22.23;11.53;;;;;;;;;;10449543;28;20238;-74
2022/12/15 20:11:52;;;;;;;23.27;11.97;;;;;;;;;;10466486;28;20683;-74
2022/12/15 20:16:53;;;;;;;20.50;10.57;;;;;;;;;;10472500;28;20693;-72
2022/12/15 20:21:54;;;;;;;32.47;12.50;;;;;;;;;;10472841;28;20214;-77
2022/12/15 20:26:55;;;;;;;32.93;12.30;;;;;;;;;;10459327;28;20229;-72
2022/12/15 20:31:57;;;;;;;25.60;10.47;;;;;;;;;;10461138;28;20792;-71
2022/12/15 20:36:58;;;;;;;26.97;12.87;;;;;;;;;;10459610;28;20275;-74
2022/12/15 20:41:59;;;;;;;32.00;11.83;;;;;;;;;;10462322;28;20279;-72
2022/12/15 20:47:00;;;;;;;27.97;12.50;;;;;;;;;;10432223;28;20210;-79
2022/12/15 20:52:02;;;;;;;25.90;11.93;;;;;;;;;;10463254;28;20291;-77
2022/12/15 20:57:03;;;;;;;30.13;11.87;;;;;;;;;;10448800;28;20257;-78
2022/12/15 21:02:19;;;;;;;28.80;11.70;;;;;;;;;;10457720;28;20221;-73
2022/12/15 21:07:20;;;;;;;28.53;11.27;;;;;;;;;;10448939;28;20262;-72
2022/12/15 21:12:24;;;;;;;26.47;10.83;;;;;;;;;;10457645;28;20232;-71
2022/12/15 21:17:25;;;;;;;29.53;11.13;;;;;;;;;;10459375;28;20217;-72
2022/12/15 21:22:27;;;;;;;30.50;12.60;;;;;;;;;;10457032;28;20268;-71
2022/12/15 21:27:28;;;;;;;27.87;12.57;;;;;;;;;;10468770;28;20710;-72
2022/12/15 21:32:30;;;;;;;27.20;12.57;;;;;;;;;;10473401;28;20592;-73
2022/12/15 21:37:31;;;;;;;40.83;12.83;;;;;;;;;;10457095;28;20368;-72
2022/12/15 21:42:34;;;;;;;33.37;14.23;;;;;;;;;;10466766;28;20316;-72
2022/12/15 21:52:55;;;;;;;33.80;12.27;;;;;;;;;;10468399;28;20255;-71
2022/12/15 21:57:56;;;;;;;31.40;13.20;;;;;;;;;;10471957;28;20225;-73
2022/12/15 22:02:58;;;;;;;21.67;9.77;;;;;;;;;;10470094;28;20210;-72
2022/12/15 22:08:01;;;;;;;41.50;13.00;;;;;;;;;;10466178;28;20762;-72
2022/12/15 22:13:02;;;;;;;26.60;9.93;;;;;;;;;;10470993;28;20226;-72
2022/12/15 22:18:07;;;;;;;30.70;10.90;;;;;;;;;;10470303;28;20215;-72
2022/12/15 22:23:08;;;;;;;32.53;11.03;;;;;;;;;;10464421;28;20302;-72
2022/12/15 22:28:21;;;;;;;24.30;11.07;;;;;;;;;;10427858;28;20219;-72
2022/12/15 22:33:23;;;;;;;22.67;10.43;;;;;;;;;;10427038;28;20227;-72
2022/12/15 22:38:24;;;;;;;30.93;11.30;;;;;;;;;;10431344;28;20280;-71
2022/12/15 22:43:38;;;;;;;18.97;9.93;;;;;;;;;;10457138;28;20231;-71
2022/12/15 22:48:40;;;;;;;28.93;11.47;;;;;;;;;;10428768;28;20361;-72
2022/12/15 22:53:41;;;;;;;21.20;9.97;;;;;;;;;;10423144;28;20215;-72
2022/12/15 22:58:44;;;;;;;18.07;8.57;;;;;;;;;;10455509;28;20229;-70
2022/12/15 23:03:45;;;;;;;19.57;7.87;;;;;;;;;;10435464;28;20579;-71
2022/12/15 23:08:50;;;;;;;15.77;7.40;;;;;;;;;;10436616;28;20214;-71
2022/12/15 23:13:51;;;;;;;14.70;7.90;;;;;;;;;;10467900;28;20296;-72
2022/12/15 23:18:53;;;;;;;13.77;7.77;;;;;;;;;;10421589;28;20305;-71
2022/12/15 23:23:54;;;;;;;13.80;7.00;;;;;;;;;;10426419;28;20233;-71
2022/12/15 23:28:56;;;;;;;14.17;7.87;;;;;;;;;;10466073;28;20213;-72
2022/12/15 23:33:57;;;;;;;14.80;7.20;;;;;;;;;;10463835;28;20213;-71
2022/12/15 23:38:58;;;;;;;12.40;7.07;;;;;;;;;;10467780;28;20216;-72
2022/12/15 23:43:59;;;;;;;12.93;6.80;;;;;;;;;;10467571;28;20222;-71
2022/12/15 23:49:00;;;;;;;18.30;7.13;;;;;;;;;;10474993;28;20214;-71
2022/12/15 23:54:01;;;;;;;17.90;7.77;;;;;;;;;;10469563;28;20952;-71
2022/12/15 23:59:02;;;;;;;14.00;6.63;;;;;;;;;;10487446;28;20229;-72
